createdAt,value
2022-07-29T00:00:08.871Z,29.50
2022-07-29T00:02:54.830Z,29.40
2022-07-29T00:05:42.463Z,29.20
2022-07-29T00:08:28.717Z,29.10
2022-07-29T00:11:14.995Z,28.90
2022-07-29T00:14:01.276Z,28.80
2022-07-29T00:16:48.180Z,28.90
2022-07-29T00:19:35.256Z,28.80
2022-07-29T00:22:21.891Z,28.70
2022-07-29T00:25:09.151Z,28.50
2022-07-29T00:27:54.800Z,28.30
2022-07-29T00:30:40.898Z,28.20
2022-07-29T00:33:26.568Z,28.10
2022-07-29T00:36:12.461Z,28.20
2022-07-29T00:38:57.978Z,28.10
2022-07-29T00:41:43.948Z,28.10
2022-07-29T00:44:29.740Z,28.10
2022-07-29T00:47:16.412Z,28.00
2022-07-29T00:50:02.157Z,28.00
2022-07-29T00:52:48.759Z,27.80
2022-07-29T00:55:34.514Z,27.80
2022-07-29T00:58:21.267Z,27.80
2022-07-29T01:01:07.525Z,27.90
2022-07-29T01:03:53.653Z,27.70
2022-07-29T01:06:39.612Z,27.70
2022-07-29T01:09:37.334Z,27.50
2022-07-29T01:12:34.502Z,27.60
2022-07-29T01:15:20.595Z,27.50
2022-07-29T01:18:18.280Z,27.40
2022-07-29T01:21:45.694Z,27.60
2022-07-29T01:24:38.405Z,27.80
2022-07-29T01:27:45.590Z,27.80
2022-07-29T01:30:33.702Z,27.90
2022-07-29T01:33:43.619Z,27.80
2022-07-29T01:36:44.134Z,27.90
2022-07-29T01:39:37.110Z,27.70
2022-07-29T01:42:46.050Z,27.70
2022-07-29T01:46:01.381Z,27.50
2022-07-29T01:48:54.329Z,27.30
2022-07-29T01:52:03.076Z,27.00
2022-07-29T01:54:58.964Z,26.90
2022-07-29T01:57:48.791Z,26.80
2022-07-29T02:00:37.153Z,27.00
2022-07-29T02:03:24.242Z,27.20
2022-07-29T02:06:13.280Z,27.30
2022-07-29T02:09:00.465Z,27.10
2022-07-29T02:11:52.260Z,26.90
2022-07-29T02:14:41.500Z,26.70
2022-07-29T02:17:34.010Z,26.80
2022-07-29T02:20:20.247Z,26.80
2022-07-29T02:23:10.510Z,26.70
2022-07-29T02:26:01.084Z,26.70
2022-07-29T02:28:49.176Z,26.80
2022-07-29T02:31:37.172Z,26.90
2022-07-29T02:34:24.337Z,26.70
2022-07-29T02:37:13.117Z,26.60
2022-07-29T02:40:00.025Z,26.40
2022-07-29T02:42:47.661Z,26.50
2022-07-29T02:45:35.540Z,26.60
2022-07-29T02:48:33.780Z,26.50
2022-07-29T02:51:43.390Z,26.30
2022-07-29T02:54:51.077Z,26.30
2022-07-29T02:57:54.425Z,26.30
2022-07-29T03:00:42.439Z,26.40
2022-07-29T03:03:32.853Z,26.10
2022-07-29T03:06:30.945Z,26.10
2022-07-29T03:09:26.364Z,26.00
2022-07-29T03:12:12.805Z,25.90
2022-07-29T03:15:00.236Z,26.00
2022-07-29T03:17:46.786Z,26.10
2022-07-29T03:20:32.669Z,26.00
2022-07-29T03:23:24.744Z,25.80
2022-07-29T03:26:11.409Z,25.80
2022-07-29T03:28:57.278Z,25.80
2022-07-29T03:31:43.735Z,25.80
2022-07-29T03:34:29.799Z,25.70
2022-07-29T03:37:16.137Z,25.70
2022-07-29T03:40:04.017Z,25.80
2022-07-29T03:42:52.915Z,25.80
2022-07-29T03:45:40.189Z,25.70
2022-07-29T03:48:27.872Z,25.60
2022-07-29T03:51:14.238Z,25.60
2022-07-29T03:54:00.163Z,25.70
2022-07-29T03:56:48.529Z,25.70
2022-07-29T03:59:35.486Z,25.70
2022-07-29T04:02:24.398Z,25.60
2022-07-29T04:05:17.375Z,25.60
2022-07-29T04:08:03.285Z,25.80
2022-07-29T04:10:49.742Z,25.60
2022-07-29T04:13:35.618Z,25.50
2022-07-29T04:16:21.594Z,25.50
2022-07-29T04:19:07.625Z,25.30
2022-07-29T04:21:53.668Z,25.40
2022-07-29T04:24:41.825Z,25.50
2022-07-29T04:27:29.934Z,25.40
2022-07-29T04:30:16.127Z,25.50
2022-07-29T04:33:03.212Z,25.40
2022-07-29T04:35:52.403Z,25.50
2022-07-29T04:38:40.771Z,25.60
2022-07-29T04:41:32.761Z,25.60
2022-07-29T04:44:20.146Z,25.50
2022-07-29T04:47:09.856Z,25.50
2022-07-29T04:49:56.280Z,25.60
2022-07-29T04:52:42.784Z,25.60
2022-07-29T04:55:28.284Z,25.70
2022-07-29T04:58:14.174Z,25.90
2022-07-29T05:00:59.769Z,26.00
2022-07-29T05:03:46.350Z,25.90
2022-07-29T05:06:32.344Z,26.10
2022-07-29T05:09:18.199Z,26.20
2022-07-29T05:12:04.883Z,26.10
2022-07-29T05:14:50.551Z,26.00
2022-07-29T05:17:36.123Z,26.00
2022-07-29T05:20:27.025Z,25.90
2022-07-29T05:23:16.610Z,26.00
2022-07-29T05:26:02.734Z,26.00
2022-07-29T05:28:49.144Z,26.00
2022-07-29T05:31:35.630Z,25.90
2022-07-29T05:34:21.203Z,25.90
2022-07-29T05:37:07.063Z,25.90
2022-07-29T05:39:57.166Z,26.10
2022-07-29T05:42:44.515Z,26.00
2022-07-29T05:45:30.773Z,26.10
2022-07-29T05:48:16.845Z,26.00
2022-07-29T05:51:03.118Z,26.00
2022-07-29T05:53:49.196Z,26.00
2022-07-29T05:56:35.089Z,26.00
2022-07-29T05:59:21.237Z,25.90
2022-07-29T06:02:07.325Z,26.00
2022-07-29T06:04:53.260Z,26.10
2022-07-29T06:07:39.017Z,26.00
2022-07-29T06:10:37.301Z,26.10
2022-07-29T06:13:23.695Z,25.90
2022-07-29T06:16:09.577Z,25.60
2022-07-29T06:19:01.235Z,25.80
2022-07-29T06:21:48.143Z,25.90
2022-07-29T06:24:34.249Z,26.00
2022-07-29T06:27:20.151Z,26.10
2022-07-29T06:30:08.087Z,26.00
2022-07-29T06:32:53.902Z,26.10
2022-07-29T06:35:41.847Z,26.10
2022-07-29T06:38:33.934Z,26.30
2022-07-29T06:41:19.669Z,26.20
2022-07-29T06:44:06.149Z,26.10
2022-07-29T06:46:52.664Z,26.30
2022-07-29T06:49:38.153Z,26.40
2022-07-29T06:52:24.344Z,26.50
2022-07-29T06:55:13.036Z,26.40
2022-07-29T06:58:12.223Z,26.40
2022-07-29T07:01:00.147Z,26.40
2022-07-29T07:03:46.423Z,26.50
2022-07-29T07:06:32.702Z,26.50
2022-07-29T07:09:18.502Z,26.60
2022-07-29T07:12:04.782Z,26.50
2022-07-29T07:14:51.317Z,26.40
2022-07-29T07:17:38.644Z,26.40
2022-07-29T07:20:25.958Z,26.60
2022-07-29T07:23:12.403Z,26.60
2022-07-29T07:25:58.621Z,26.50
2022-07-29T07:28:44.785Z,26.60
2022-07-29T07:31:30.893Z,26.70
2022-07-29T07:34:17.008Z,26.70
2022-07-29T07:37:15.588Z,26.60
2022-07-29T07:40:02.344Z,26.30
2022-07-29T07:42:48.901Z,26.40
2022-07-29T07:45:35.315Z,26.70
2022-07-29T07:48:21.293Z,26.60
2022-07-29T07:51:08.304Z,26.70
2022-07-29T07:53:55.185Z,27.00
2022-07-29T07:56:42.949Z,27.00
2022-07-29T07:59:28.919Z,26.70
2022-07-29T08:02:14.958Z,26.80
2022-07-29T08:05:01.178Z,26.70
2022-07-29T08:07:47.942Z,26.80
2022-07-29T08:10:52.905Z,27.00
2022-07-29T08:13:39.658Z,26.80
2022-07-29T08:16:26.233Z,27.10
2022-07-29T08:19:12.131Z,27.10
2022-07-29T08:21:59.092Z,27.30
2022-07-29T08:24:45.380Z,27.40
2022-07-29T08:27:43.401Z,27.50
2022-07-29T08:30:29.646Z,27.40
2022-07-29T08:33:15.393Z,27.30
2022-07-29T08:36:02.268Z,27.20
2022-07-29T08:38:49.492Z,27.20
2022-07-29T08:41:36.452Z,27.10
2022-07-29T08:44:31.128Z,27.20
2022-07-29T08:47:18.106Z,27.40
2022-07-29T08:50:03.877Z,27.40
2022-07-29T08:52:51.297Z,27.30
2022-07-29T08:55:43.008Z,27.40
2022-07-29T08:58:32.976Z,27.50
2022-07-29T09:01:36.511Z,27.50
2022-07-29T09:04:33.722Z,27.60
2022-07-29T09:07:20.301Z,27.50
2022-07-29T09:10:07.447Z,27.50
2022-07-29T09:12:53.496Z,27.60
2022-07-29T09:15:39.526Z,27.60
2022-07-29T09:18:36.648Z,27.60
2022-07-29T09:21:40.868Z,27.80
2022-07-29T09:24:36.592Z,27.80
2022-07-29T09:27:24.037Z,27.80
2022-07-29T09:30:11.838Z,27.80
2022-07-29T09:33:02.191Z,27.80
2022-07-29T09:36:10.105Z,28.00
2022-07-29T09:39:01.725Z,28.10
2022-07-29T09:41:54.683Z,28.30
2022-07-29T09:44:49.489Z,28.40
2022-07-29T09:47:47.888Z,28.50
2022-07-29T09:50:41.387Z,28.60
2022-07-29T09:53:38.451Z,28.80
2022-07-29T09:56:43.976Z,28.90
2022-07-29T09:59:30.479Z,28.80
2022-07-29T10:02:21.993Z,28.90
2022-07-29T10:05:25.476Z,29.10
2022-07-29T10:08:13.451Z,29.10
2022-07-29T10:11:15.083Z,29.10
2022-07-29T10:14:04.232Z,29.00
2022-07-29T10:16:50.391Z,29.00
2022-07-29T10:19:38.298Z,29.10
2022-07-29T10:22:50.790Z,29.10
2022-07-29T10:25:31.022Z,29.00
2022-07-29T10:28:17.391Z,29.20
2022-07-29T10:31:07.415Z,29.30
2022-07-29T10:34:24.331Z,29.40
2022-07-29T10:37:19.662Z,29.30
2022-07-29T10:40:43.714Z,29.40
2022-07-29T10:43:39.004Z,29.60
2022-07-29T10:46:29.092Z,29.70
2022-07-29T10:49:25.877Z,29.80
2022-07-29T10:52:11.776Z,29.70
2022-07-29T10:55:01.261Z,29.50
2022-07-29T10:58:18.064Z,29.40
2022-07-29T11:04:47.271Z,29.40
2022-07-29T11:07:46.126Z,29.30
2022-07-29T11:10:32.821Z,29.40
2022-07-29T11:13:43.495Z,29.20
2022-07-29T11:16:59.095Z,29.30
2022-07-29T11:19:51.917Z,29.40
2022-07-29T11:25:52.301Z,29.60
2022-07-29T11:28:59.450Z,29.60
2022-07-29T11:31:49.379Z,29.60
2022-07-29T11:34:36.462Z,29.70
2022-07-29T11:37:28.290Z,29.70
2022-07-29T11:40:16.549Z,29.90
2022-07-29T11:43:07.450Z,30.10
2022-07-29T11:45:54.237Z,30.20
2022-07-29T11:48:44.166Z,30.30
2022-07-29T11:51:32.822Z,30.50
2022-07-29T11:54:31.957Z,30.70
2022-07-29T11:57:19.488Z,30.80
2022-07-29T12:00:12.512Z,30.90
2022-07-29T12:03:03.784Z,31.00
2022-07-29T12:05:51.796Z,31.00
2022-07-29T12:08:43.720Z,31.30
2022-07-29T12:11:30.079Z,31.30
2022-07-29T12:14:30.168Z,31.20
2022-07-29T12:17:36.907Z,31.10
2022-07-29T12:20:32.116Z,31.10
2022-07-29T12:23:18.927Z,31.20
2022-07-29T12:26:10.548Z,31.10
2022-07-29T12:28:56.986Z,31.10
2022-07-29T12:31:45.528Z,31.10
2022-07-29T12:34:32.074Z,31.30
2022-07-29T12:37:18.109Z,31.30
2022-07-29T12:40:06.233Z,31.50
2022-07-29T12:43:13.539Z,31.70
2022-07-29T12:46:14.115Z,31.80
2022-07-29T12:49:00.364Z,32.20
2022-07-29T12:51:46.297Z,32.50
2022-07-29T12:54:32.032Z,33.00
2022-07-29T12:57:20.121Z,35.90
2022-07-29T13:00:13.589Z,39.00
2022-07-29T13:03:00.791Z,40.70
2022-07-29T13:05:51.413Z,41.60
2022-07-29T13:08:58.333Z,42.20
2022-07-29T13:11:52.123Z,43.80
2022-07-29T13:14:49.645Z,43.00
2022-07-29T13:17:43.527Z,43.80
2022-07-29T13:20:34.237Z,43.30
2022-07-29T13:23:20.778Z,42.90
2022-07-29T13:26:17.183Z,41.60
2022-07-29T13:29:03.006Z,39.90
2022-07-29T13:31:49.304Z,39.70
2022-07-29T13:34:35.292Z,38.70
2022-07-29T13:37:20.953Z,38.10
2022-07-29T13:40:08.377Z,37.80
2022-07-29T13:42:54.396Z,37.50
2022-07-29T13:45:40.400Z,36.90
2022-07-29T13:48:26.684Z,37.10
2022-07-29T13:51:12.799Z,38.40
2022-07-29T13:53:59.485Z,38.00
2022-07-29T13:56:46.476Z,37.00
2022-07-29T13:59:33.059Z,36.10
2022-07-29T14:02:19.108Z,35.80
2022-07-29T14:05:09.505Z,35.10
2022-07-29T14:07:55.953Z,34.70
2022-07-29T14:10:42.094Z,34.40
2022-07-29T14:13:28.664Z,34.30
2022-07-29T14:16:14.559Z,33.60
2022-07-29T14:19:00.955Z,33.50
2022-07-29T14:21:47.114Z,33.60
2022-07-29T14:24:33.379Z,33.60
2022-07-29T14:27:37.685Z,33.70
2022-07-29T14:30:24.093Z,33.50
2022-07-29T14:33:10.063Z,33.30
2022-07-29T14:35:56.305Z,33.20
2022-07-29T14:38:47.192Z,33.00
2022-07-29T14:41:33.772Z,32.70
2022-07-29T14:44:20.086Z,31.90
2022-07-29T14:47:07.649Z,31.70
2022-07-29T14:49:53.782Z,31.20
2022-07-29T14:52:39.953Z,30.80
2022-07-29T14:55:26.308Z,30.60
2022-07-29T14:58:16.257Z,30.50
2022-07-29T15:01:02.478Z,30.60
2022-07-29T15:03:48.005Z,30.80
2022-07-29T15:06:33.708Z,30.70
2022-07-29T15:09:19.243Z,30.60
2022-07-29T15:12:05.605Z,30.70
2022-07-29T15:14:51.348Z,30.70
2022-07-29T15:17:37.751Z,30.70
2022-07-29T15:20:26.209Z,30.50
2022-07-29T15:23:13.531Z,30.20
2022-07-29T15:25:59.747Z,29.90
2022-07-29T15:28:45.999Z,29.90
2022-07-29T15:31:32.204Z,29.90
2022-07-29T15:34:18.797Z,29.80
2022-07-29T15:37:05.827Z,29.80
2022-07-29T15:39:51.872Z,29.80
2022-07-29T15:42:38.310Z,29.80
2022-07-29T15:45:24.457Z,29.90
2022-07-29T15:48:14.610Z,29.70
2022-07-29T15:51:01.305Z,29.40
2022-07-29T15:53:53.274Z,29.40
2022-07-29T15:56:39.478Z,29.20
2022-07-29T15:59:26.413Z,28.90
2022-07-29T16:02:12.478Z,28.80
2022-07-29T16:04:58.362Z,28.80
2022-07-29T16:07:44.312Z,28.80
2022-07-29T16:10:30.047Z,28.80
2022-07-29T16:13:17.157Z,28.70
2022-07-29T16:16:04.716Z,28.60
2022-07-29T16:18:50.905Z,28.10
2022-07-29T16:21:38.342Z,28.10
2022-07-29T16:24:29.599Z,28.00
2022-07-29T16:27:15.661Z,27.90
2022-07-29T16:30:01.926Z,27.80
2022-07-29T16:32:47.632Z,27.80
2022-07-29T16:35:39.869Z,28.00
2022-07-29T16:38:26.935Z,27.90
2022-07-29T16:41:13.183Z,27.70
2022-07-29T16:43:59.201Z,36.30
2022-07-29T16:46:45.754Z,42.40
2022-07-29T16:49:32.570Z,32.90
2022-07-29T16:52:18.788Z,29.80
2022-07-29T16:55:05.657Z,28.80
2022-07-29T16:57:52.777Z,28.00
2022-07-29T17:00:39.395Z,27.20
2022-07-29T17:03:25.678Z,27.30
2022-07-29T17:06:12.417Z,27.40
2022-07-29T17:08:58.615Z,27.40
2022-07-29T17:11:54.018Z,27.00
2022-07-29T17:14:40.424Z,26.70
2022-07-29T17:17:39.329Z,26.40
2022-07-29T17:20:33.135Z,26.10
2022-07-29T17:23:19.170Z,26.10
2022-07-29T17:26:05.231Z,26.40
2022-07-29T17:28:51.408Z,26.10
2022-07-29T17:31:38.725Z,26.40
2022-07-29T17:34:24.414Z,26.50
2022-07-29T17:37:11.552Z,25.90
2022-07-29T17:40:00.274Z,26.20
2022-07-29T17:42:46.459Z,26.70
2022-07-29T17:45:49.376Z,26.50
2022-07-29T17:48:37.249Z,26.20
2022-07-29T17:51:24.223Z,26.20
2022-07-29T17:54:10.282Z,25.70
2022-07-29T17:56:56.759Z,25.90
2022-07-29T17:59:42.663Z,25.80
2022-07-29T18:02:28.668Z,25.90
2022-07-29T18:05:15.878Z,26.00
2022-07-29T18:08:01.841Z,26.10
2022-07-29T18:10:47.711Z,26.40
2022-07-29T18:13:34.059Z,26.40
2022-07-29T18:16:20.301Z,26.30
2022-07-29T18:19:06.604Z,26.60
2022-07-29T18:21:55.264Z,26.80
2022-07-29T18:24:43.325Z,26.80
2022-07-29T18:27:29.275Z,26.60
2022-07-29T18:30:15.970Z,26.30
2022-07-29T18:36:11.518Z,26.40
2022-07-29T18:38:57.640Z,26.60
2022-07-29T18:41:49.796Z,26.70
2022-07-29T18:44:43.560Z,26.60
2022-07-29T18:47:36.286Z,33.30
2022-07-29T18:50:29.179Z,42.30
2022-07-29T18:53:15.809Z,44.70
2022-07-29T18:56:03.443Z,44.70
2022-07-29T18:58:50.141Z,44.60
2022-07-29T19:01:37.835Z,44.40
2022-07-29T19:04:24.342Z,44.00
2022-07-29T19:07:10.323Z,43.90
2022-07-29T19:09:56.289Z,43.50
2022-07-29T19:12:42.433Z,43.40
2022-07-29T19:15:28.502Z,43.40
2022-07-29T19:18:14.411Z,43.40
2022-07-29T19:21:00.288Z,43.40
2022-07-29T19:24:00.223Z,43.80
2022-07-29T19:26:51.679Z,44.00
2022-07-29T19:29:37.716Z,43.90
2022-07-29T19:32:24.829Z,44.20
2022-07-29T19:35:31.260Z,43.90
2022-07-29T19:38:17.738Z,44.00
2022-07-29T19:41:03.981Z,44.20
2022-07-29T19:43:53.068Z,44.00
2022-07-29T19:46:39.532Z,44.20
2022-07-29T19:49:26.114Z,44.20
2022-07-29T19:52:12.639Z,44.10
2022-07-29T19:55:00.382Z,44.20
2022-07-29T19:57:49.333Z,44.20
2022-07-29T20:00:35.466Z,43.80
2022-07-29T20:03:21.808Z,39.80
2022-07-29T20:06:08.113Z,35.90
2022-07-29T20:08:58.455Z,34.30
2022-07-29T20:11:45.120Z,33.10
2022-07-29T20:14:31.266Z,32.20
2022-07-29T20:17:19.414Z,31.90
2022-07-29T20:20:06.976Z,31.50
2022-07-29T20:22:54.534Z,30.90
2022-07-29T20:25:40.732Z,30.70
2022-07-29T20:28:26.997Z,30.60
2022-07-29T20:31:15.461Z,30.40
2022-07-29T20:34:02.043Z,30.00
2022-07-29T20:36:48.910Z,29.80
2022-07-29T20:39:35.460Z,29.70
2022-07-29T20:42:21.313Z,29.40
2022-07-29T20:45:08.785Z,29.20
2022-07-29T20:47:54.948Z,28.70
2022-07-29T20:50:42.788Z,28.40
2022-07-29T20:53:28.549Z,28.60
2022-07-29T20:56:14.513Z,28.30
2022-07-29T20:59:00.787Z,28.10
2022-07-29T21:01:46.540Z,27.70
2022-07-29T21:04:32.625Z,27.60
2022-07-29T21:07:19.457Z,27.40
2022-07-29T21:10:10.245Z,27.20
2022-07-29T21:12:58.483Z,27.00
2022-07-29T21:15:48.353Z,26.80
2022-07-29T21:18:37.428Z,26.80
2022-07-29T21:21:24.689Z,26.80
2022-07-29T21:24:12.022Z,26.80
2022-07-29T21:27:21.119Z,26.50
2022-07-29T21:30:09.384Z,26.30
2022-07-29T21:32:55.141Z,26.40
2022-07-29T21:36:06.939Z,26.60
2022-07-29T21:38:47.970Z,26.80
2022-07-29T21:41:35.015Z,26.70
2022-07-29T21:44:21.859Z,26.40
2022-07-29T21:47:09.564Z,26.50
2022-07-29T21:49:55.505Z,26.50
2022-07-29T21:52:41.188Z,26.60
2022-07-29T21:55:27.547Z,26.50
2022-07-29T21:58:15.620Z,26.50
2022-07-29T22:01:01.553Z,26.40
2022-07-29T22:03:48.097Z,26.40
2022-07-29T22:06:34.622Z,26.40
2022-07-29T22:09:21.008Z,26.30
2022-07-29T22:12:07.210Z,26.20
2022-07-29T22:14:52.970Z,26.30
2022-07-29T22:17:40.170Z,26.10
2022-07-29T22:20:26.020Z,26.10
2022-07-29T22:23:11.541Z,25.90
2022-07-29T22:25:58.286Z,25.80
2022-07-29T22:28:44.626Z,25.70
2022-07-29T22:31:30.688Z,25.60
2022-07-29T22:34:17.504Z,25.80
2022-07-29T22:37:03.547Z,25.70
2022-07-29T22:39:49.212Z,25.40
2022-07-29T22:42:35.670Z,25.20
2022-07-29T22:45:21.481Z,25.10
2022-07-29T22:48:07.095Z,24.90
2022-07-29T22:50:53.154Z,24.90
2022-07-29T22:53:39.752Z,25.00
2022-07-29T22:56:25.601Z,25.10
2022-07-29T22:59:11.240Z,24.90
2022-07-29T23:01:56.740Z,24.80
2022-07-29T23:04:43.313Z,24.80
2022-07-29T23:07:28.986Z,24.80
2022-07-29T23:10:15.331Z,24.90
2022-07-29T23:13:01.333Z,25.10
2022-07-29T23:15:47.939Z,25.20
2022-07-29T23:18:33.951Z,25.30
2022-07-29T23:21:23.119Z,25.00
2022-07-29T23:24:09.484Z,24.90
2022-07-29T23:26:55.512Z,24.90
2022-07-29T23:29:41.510Z,24.80
2022-07-29T23:32:27.747Z,24.80
2022-07-29T23:35:14.029Z,24.80
2022-07-29T23:37:59.949Z,24.80
2022-07-29T23:40:46.097Z,24.70
2022-07-29T23:43:32.505Z,24.70
2022-07-29T23:46:18.223Z,24.70
2022-07-29T23:49:10.272Z,24.70
2022-07-29T23:51:56.464Z,24.70
2022-07-29T23:54:42.553Z,24.60
2022-07-29T23:57:28.143Z,24.50
